Time;durP1;ratioP1;P1;durP2;ratioP2;P2;SDS_P1;SDS_P2;PMS_P1;PMS_P2;Temp;Humidity;BMP_temperature;BMP_pressure;BME280_temperature;BME280_humidity;BME280_pressure;Samples;Min_cycle;Max_cycle;Signal;HPM_P1;HPM_P2
2022/12/04 00:00:10;;;;;;;237.48;155.32;;;154.40;2252.80;;;;;;4992929;28;20133;-59
2022/12/04 00:02:35;;;;;;;318.13;216.65;;;154.30;2252.80;;;;;;4992786;28;20120;-57
2022/12/04 00:05:02;;;;;;;325.88;215.40;;;154.30;2252.80;;;;;;4992755;28;20202;-57
2022/12/04 00:07:28;;;;;;;204.18;141.18;;;154.30;2252.80;;;;;;4992482;28;20077;-57
2022/12/04 00:09:53;;;;;;;227.73;153.20;;;154.20;2252.80;;;;;;4992889;28;20039;-60
2022/12/04 00:12:19;;;;;;;221.20;145.77;;;154.30;2252.80;;;;;;4992747;28;20026;-60
2022/12/04 00:14:45;;;;;;;205.50;139.20;;;154.20;2252.80;;;;;;4992475;28;20022;-57
2022/12/04 00:17:11;;;;;;;196.82;133.23;;;154.30;2252.80;;;;;;4992716;28;20081;-59
2022/12/04 00:19:37;;;;;;;201.70;132.20;;;154.10;2252.80;;;;;;4992288;28;20030;-57
2022/12/04 00:22:02;;;;;;;172.35;116.28;;;154.20;2252.80;;;;;;4992620;28;20030;-60
2022/12/04 00:24:28;;;;;;;220.27;142.02;;;154.20;2252.80;;;;;;4992308;28;20488;-57
2022/12/04 00:26:54;;;;;;;222.25;145.95;;;154.30;2252.80;;;;;;4992331;28;20115;-57
2022/12/04 00:29:19;;;;;;;214.35;138.93;;;154.30;2252.80;;;;;;4987695;28;20026;-57
2022/12/04 00:31:45;;;;;;;186.30;130.73;;;154.30;2252.80;;;;;;4981726;28;20027;-57
2022/12/04 00:34:11;;;;;;;192.48;126.57;;;154.30;2252.80;;;;;;4980239;28;20026;-55
2022/12/04 00:36:36;;;;;;;189.07;127.15;;;154.30;2252.80;;;;;;4981929;28;20080;-59
2022/12/04 00:39:03;;;;;;;201.63;133.05;;;154.30;2252.80;;;;;;4981013;28;20027;-58
2022/12/04 00:41:31;;;;;;;149.02;101.20;;;154.30;2252.80;;;;;;4980225;28;20101;-57
2022/12/04 00:43:57;;;;;;;207.82;131.52;;;154.40;2252.80;;;;;;4977572;28;20073;-59
2022/12/04 00:46:23;;;;;;;215.98;135.05;;;154.40;2252.80;;;;;;4980949;28;20101;-58
2022/12/04 00:48:49;;;;;;;187.88;128.30;;;154.30;2252.80;;;;;;4981704;28;20491;-56
2022/12/04 00:51:18;;;;;;;231.00;150.48;;;154.30;2252.80;;;;;;4980115;28;20030;-56
2022/12/04 00:53:44;;;;;;;221.68;146.25;;;154.20;2252.80;;;;;;4980426;28;20574;-56
2022/12/04 00:56:13;;;;;;;249.20;157.80;;;154.20;2252.80;;;;;;4981901;28;20070;-60
2022/12/04 00:58:40;;;;;;;297.42;175.98;;;154.30;2252.80;;;;;;4978017;28;20359;-58
2022/12/04 01:01:13;;;;;;;241.77;156.23;;;154.20;2252.80;;;;;;4980310;28;20101;-58
2022/12/04 01:03:39;;;;;;;175.80;115.25;;;154.20;2252.80;;;;;;4975523;28;20030;-59
2022/12/04 01:06:05;;;;;;;315.45;185.70;;;154.10;2252.80;;;;;;4980006;28;20113;-58
2022/12/04 01:08:32;;;;;;;158.63;106.32;;;154.10;2252.80;;;;;;4981616;28;20033;-57
2022/12/04 01:10:58;;;;;;;137.85;89.80;;;154.20;2252.80;;;;;;4980030;28;20057;-57
2022/12/04 01:13:24;;;;;;;133.10;86.78;;;154.10;2252.80;;;;;;4980345;28;20025;-58
2022/12/04 01:15:50;;;;;;;154.25;99.97;;;154.20;2252.80;;;;;;4981368;28;20023;-57
2022/12/04 01:18:17;;;;;;;190.18;122.68;;;154.20;2252.80;;;;;;4979868;28;20022;-57
2022/12/04 01:20:48;;;;;;;241.95;157.13;;;154.10;2252.80;;;;;;4980571;28;20380;-57
2022/12/04 01:23:13;;;;;;;235.35;153.02;;;154.10;2252.80;;;;;;4981535;28;20027;-57
2022/12/04 01:25:39;;;;;;;210.45;143.93;;;154.10;2252.80;;;;;;4979899;28;20417;-57
2022/12/04 01:28:05;;;;;;;224.88;146.93;;;154.00;2252.80;;;;;;4979774;28;20019;-55
2022/12/04 01:30:30;;;;;;;217.75;141.02;;;154.00;2252.80;;;;;;4981211;28;20105;-57
2022/12/04 01:32:56;;;;;;;229.20;151.57;;;153.90;2252.80;;;;;;4979282;28;20077;-58
2022/12/04 01:35:22;;;;;;;192.60;129.10;;;153.80;2252.80;;;;;;4980055;28;20041;-56
2022/12/04 01:37:47;;;;;;;230.45;148.35;;;153.80;2252.80;;;;;;4980783;28;20115;-58
2022/12/04 01:40:15;;;;;;;225.82;143.98;;;153.70;2252.80;;;;;;4979253;28;20026;-57
2022/12/04 01:42:41;;;;;;;158.50;107.55;;;153.60;1894.40;;;;;;4980009;28;20458;-56
2022/12/04 01:45:46;;;;;;;181.10;119.97;;;153.60;2252.80;;;;;;4980559;28;20102;-59
2022/12/04 01:48:24;;;;;;;112.50;82.53;;;153.60;2252.80;;;;;;4980532;28;20105;-57
2022/12/04 01:50:53;;;;;;;155.50;103.32;;;153.70;2252.80;;;;;;4980851;28;20026;-58
2022/12/04 01:53:20;;;;;;;145.35;99.88;;;153.70;2252.80;;;;;;4979173;28;20026;-59
2022/12/04 01:55:47;;;;;;;154.77;102.40;;;128.90;2252.80;;;;;;4979128;28;20038;-59
2022/12/04 01:58:14;;;;;;;128.48;84.03;;;128.90;2252.80;;;;;;4980834;28;20028;-60
2022/12/04 02:00:40;;;;;;;99.28;65.00;;;128.80;2252.80;;;;;;4979668;28;20465;-59
2022/12/04 02:03:06;;;;;;;109.57;67.22;;;128.90;2252.80;;;;;;4978923;28;20030;-59
2022/12/04 02:05:32;;;;;;;103.93;71.18;;;128.90;2252.80;;;;;;4980439;28;20034;-61
2022/12/04 02:08:00;;;;;;;113.40;67.00;;;128.90;2252.80;;;;;;4979089;28;20038;-59
2022/12/04 02:10:46;;;;;;;128.52;86.13;;;128.90;2252.80;;;;;;4979093;28;20015;-59
2022/12/04 02:13:41;;;;;;;87.60;56.65;;;128.90;2252.80;;;;;;4980319;28;20069;-58
2022/12/04 02:16:15;;;;;;;82.90;54.15;;;128.90;2252.80;;;;;;4900451;29;20089;-59
2022/12/04 02:18:56;;;;;;;95.50;56.85;;;128.90;2252.80;;;;;;4900859;29;20123;-58
2022/12/04 02:21:37;;;;;;;95.70;59.40;;;128.90;2252.80;;;;;;4899267;29;20035;-58
2022/12/04 02:24:30;;;;;;;49.55;33.08;;;153.60;2252.80;;;;;;4901111;29;20036;-57
2022/12/04 02:27:16;;;;;;;65.68;41.22;;;153.80;1920.00;;;;;;4897834;29;20029;-56
2022/12/04 02:29:58;;;;;;;73.93;45.92;;;153.80;2252.80;;;;;;4899205;29;20739;-58
2022/12/04 02:32:47;;;;;;;68.90;43.60;;;153.90;2252.80;;;;;;4899790;29;20036;-59
2022/12/04 02:35:31;;;;;;;76.28;42.50;;;153.90;2252.80;;;;;;4901560;29;20016;-56
2022/12/04 02:38:16;;;;;;;66.30;43.97;;;153.90;2252.80;;;;;;4901158;29;20712;-56
2022/12/04 02:40:55;;;;;;;68.05;41.63;;;153.90;2252.80;;;;;;4900793;29;20056;-58
2022/12/04 02:43:46;;;;;;;57.08;36.45;;;153.90;2252.80;;;;;;4900931;29;20032;-56
2022/12/04 02:46:39;;;;;;;74.95;45.42;;;154.00;2252.80;;;;;;4862114;29;20062;-59
2022/12/04 02:49:10;;;;;;;88.90;54.13;;;153.90;2252.80;;;;;;4861633;29;20593;-57
2022/12/04 02:51:39;;;;;;;91.72;57.88;;;153.80;2252.80;;;;;;4862424;29;20033;-56
2022/12/04 02:54:13;;;;;;;84.85;51.05;;;153.70;2252.80;;;;;;4899905;29;20120;-57
2022/12/04 02:56:43;;;;;;;60.45;38.67;;;153.80;2252.80;;;;;;4910213;29;20047;-57
2022/12/04 02:59:15;;;;;;;61.33;38.58;;;154.00;2252.80;;;;;;4910269;29;20035;-56
2022/12/04 03:01:45;;;;;;;56.00;34.38;;;154.00;2252.80;;;;;;4910493;29;20036;-58
2022/12/04 03:04:18;;;;;;;56.88;35.00;;;153.90;2252.80;;;;;;4910490;29;20054;-58
2022/12/04 03:06:53;;;;;;;69.88;41.03;;;153.90;2252.80;;;;;;4910515;29;20032;-58
2022/12/04 03:09:25;;;;;;;49.55;31.75;;;153.80;2252.80;;;;;;4910124;29;20422;-57
2022/12/04 03:12:02;;;;;;;57.85;32.78;;;153.70;2252.80;;;;;;4910389;29;20024;-57
2022/12/04 03:14:32;;;;;;;62.78;38.25;;;153.70;2252.80;;;;;;4910176;29;20068;-57
2022/12/04 03:17:05;;;;;;;64.50;39.60;;;153.70;2252.80;;;;;;4911344;29;20045;-57
2022/12/04 03:19:38;;;;;;;69.73;38.83;;;153.80;2252.80;;;;;;4913883;29;20036;-57
2022/12/04 03:22:09;;;;;;;70.97;43.72;;;153.80;2252.80;;;;;;4915899;28;20826;-59
2022/12/04 03:24:55;;;;;;;69.97;43.03;;;153.80;2252.80;;;;;;4971814;28;20403;-58
2022/12/04 03:27:39;;;;;;;62.70;36.95;;;153.70;2252.80;;;;;;4973261;28;20026;-56
2022/12/04 03:30:14;;;;;;;60.60;38.28;;;153.80;2252.80;;;;;;4973150;28;20022;-57
2022/12/04 03:32:55;;;;;;;62.45;41.38;;;153.90;2252.80;;;;;;4973324;28;20022;-57
2022/12/04 03:35:39;;;;;;;64.70;45.80;;;154.00;2252.80;;;;;;4973066;28;20110;-56
2022/12/04 03:38:36;;;;;;;62.75;42.97;;;153.80;2252.80;;;;;;4972996;28;20067;-57
2022/12/04 03:41:12;;;;;;;49.80;34.38;;;153.80;2252.80;;;;;;4973055;28;20031;-57
2022/12/04 03:43:41;;;;;;;54.45;34.00;;;153.70;2252.80;;;;;;4972803;28;20050;-57
2022/12/04 03:46:43;;;;;;;51.17;31.75;;;153.70;2252.80;;;;;;4972801;28;20106;-57
2022/12/04 03:49:19;;;;;;;73.95;42.45;;;153.70;2252.80;;;;;;4913038;29;20127;-56
2022/12/04 03:51:45;;;;;;;105.78;57.45;;;153.70;2252.80;;;;;;4913112;29;20449;-58
2022/12/04 03:54:13;;;;;;;73.78;43.63;;;153.70;2252.80;;;;;;4913261;29;20123;-57
2022/12/04 03:56:50;;;;;;;56.55;35.88;;;153.60;2252.80;;;;;;4912935;29;20088;-57
2022/12/04 03:59:25;;;;;;;56.30;35.33;;;153.60;2252.80;;;;;;4913105;29;20040;-59
2022/12/04 04:01:55;;;;;;;59.97;35.03;;;153.60;2252.80;;;;;;4912999;29;20574;-59
2022/12/04 04:04:27;;;;;;;51.70;30.60;;;153.60;2252.80;;;;;;4912960;29;20036;-59
2022/12/04 04:06:58;;;;;;;64.85;40.33;;;128.90;2252.80;;;;;;4912702;29;20083;-58
2022/12/04 04:09:26;;;;;;;62.40;36.20;;;153.60;2252.80;;;;;;4912886;29;20040;-57
2022/12/04 04:12:01;;;;;;;58.10;36.90;;;128.90;2252.80;;;;;;4912859;29;20066;-59
2022/12/04 04:25:53;;;;;;;68.18;41.83;;;128.70;1996.80;;;;;;4883558;29;20043;-60
2022/12/04 04:28:39;;;;;;;77.43;44.95;;;128.70;2252.80;;;;;;4911496;29;20136;-59
2022/12/04 04:31:11;;;;;;;71.97;45.42;;;128.60;2252.80;;;;;;4912241;29;20032;-58
2022/12/04 04:33:53;;;;;;;85.03;53.38;;;128.60;2252.80;;;;;;4912190;29;20043;-57
2022/12/04 04:36:45;;;;;;;209.82;113.35;;;128.60;2252.80;;;;;;4912053;29;20028;-58
2022/12/04 04:39:41;;;;;;;143.00;83.03;;;128.60;2048.00;;;;;;4912385;29;20042;-57
2022/12/04 04:42:21;;;;;;;85.45;53.30;;;128.60;1945.60;;;;;;4912176;29;20239;-59
2022/12/04 04:45:03;;;;;;;68.75;41.60;;;128.70;2099.20;;;;;;4912305;29;20131;-59
2022/12/04 04:47:49;;;;;;;62.70;39.70;;;128.80;2124.80;;;;;;4912060;29;20045;-60
2022/12/04 04:50:16;;;;;;;66.72;44.03;;;153.60;2252.80;;;;;;4912011;29;20135;-58
2022/12/04 04:52:46;;;;;;;69.93;44.08;;;153.60;2252.80;;;;;;4912320;29;20036;-59
2022/12/04 04:55:13;;;;;;;86.97;53.70;;;153.70;2252.80;;;;;;4912206;29;20068;-57
2022/12/04 04:57:39;;;;;;;84.30;53.90;;;128.90;2252.80;;;;;;4911921;29;20051;-58
2022/12/04 05:00:15;;;;;;;79.97;49.55;;;128.80;2252.80;;;;;;4947713;28;20437;-59
2022/12/04 05:02:42;;;;;;;76.60;48.05;;;128.70;2252.80;;;;;;4991127;28;20038;-58
2022/12/04 05:05:09;;;;;;;81.38;53.72;;;128.80;2252.80;;;;;;4990666;28;20500;-57
2022/12/04 05:07:34;;;;;;;109.38;65.20;;;128.90;2252.80;;;;;;4990879;28;20037;-57
2022/12/04 05:10:00;;;;;;;88.00;60.00;;;128.80;2252.80;;;;;;4990792;28;20022;-58
2022/12/04 05:12:26;;;;;;;69.55;45.63;;;128.90;2252.80;;;;;;4990651;28;20113;-59
2022/12/04 05:14:51;;;;;;;129.95;72.75;;;128.90;2252.80;;;;;;4990662;28;20030;-59
2022/12/04 05:17:17;;;;;;;55.63;36.55;;;153.60;2252.80;;;;;;4990479;28;20046;-57
2022/12/04 05:19:52;;;;;;;46.10;31.23;;;153.60;2252.80;;;;;;4990783;28;20358;-59
2022/12/04 05:22:38;;;;;;;45.88;29.73;;;153.80;2252.80;;;;;;4990639;28;20039;-59
2022/12/04 05:25:05;;;;;;;52.53;33.42;;;153.90;2252.80;;;;;;4990090;28;20054;-58
2022/12/04 05:27:31;;;;;;;50.63;32.75;;;153.80;2252.80;;;;;;4990511;28;20023;-59
2022/12/04 05:29:57;;;;;;;36.53;24.88;;;153.70;2252.80;;;;;;4990233;28;20034;-59
2022/12/04 05:32:25;;;;;;;28.88;19.30;;;153.80;2252.80;;;;;;4990420;28;20022;-58
2022/12/04 05:34:53;;;;;;;39.83;27.10;;;153.80;2252.80;;;;;;4990557;28;20480;-62
2022/12/04 05:37:19;;;;;;;39.97;25.15;;;153.80;2252.80;;;;;;4990097;28;20038;-58
2022/12/04 05:39:45;;;;;;;38.10;25.00;;;153.80;2252.80;;;;;;4990350;28;20035;-57
2022/12/04 05:42:11;;;;;;;34.08;21.60;;;153.90;2252.80;;;;;;4990315;28;20536;-61
2022/12/04 05:44:37;;;;;;;37.78;24.13;;;153.90;2252.80;;;;;;4990197;28;20121;-59
2022/12/04 05:47:03;;;;;;;35.83;23.50;;;153.80;2252.80;;;;;;4990369;28;20026;-57
2022/12/04 05:49:30;;;;;;;43.90;30.92;;;153.80;2252.80;;;;;;4990220;28;20038;-59
2022/12/04 05:51:56;;;;;;;42.88;25.23;;;153.90;2252.80;;;;;;4989953;28;20540;-58
2022/12/04 05:54:22;;;;;;;35.78;21.55;;;153.80;2252.80;;;;;;4990227;28;20065;-59
2022/12/04 05:56:47;;;;;;;42.60;27.95;;;154.00;2252.80;;;;;;4989955;28;20181;-60
2022/12/04 05:59:14;;;;;;;41.58;26.40;;;154.00;2252.80;;;;;;4990209;28;20030;-57
2022/12/04 06:01:40;;;;;;;44.67;25.20;;;154.00;2252.80;;;;;;4990066;28;20042;-58
2022/12/04 06:04:06;;;;;;;48.65;33.38;;;154.00;2252.80;;;;;;4989857;28;20452;-57
2022/12/04 06:06:32;;;;;;;62.53;43.25;;;154.10;2252.80;;;;;;4989897;28;20030;-57
2022/12/04 06:08:59;;;;;;;52.42;35.15;;;154.10;2252.80;;;;;;4989793;28;20604;-57
2022/12/04 06:11:27;;;;;;;41.58;30.13;;;154.10;2252.80;;;;;;4972490;28;20022;-59
2022/12/04 06:13:53;;;;;;;121.60;67.55;;;154.10;2252.80;;;;;;4989849;28;20048;-58
2022/12/04 06:16:24;;;;;;;94.95;51.15;;;154.10;2252.80;;;;;;4989586;28;20034;-59
2022/12/04 06:18:52;;;;;;;46.90;36.00;;;154.20;2252.80;;;;;;4989986;28;20113;-59
2022/12/04 06:21:19;;;;;;;42.17;28.10;;;154.20;2252.80;;;;;;4972496;28;20030;-58
2022/12/04 06:23:45;;;;;;;38.70;25.30;;;154.40;2252.80;;;;;;4989548;28;20485;-59
2022/12/04 06:26:11;;;;;;;48.38;30.88;;;154.50;2252.80;;;;;;4989891;28;20113;-59
2022/12/04 06:28:37;;;;;;;24.65;17.30;;;154.50;2252.80;;;;;;4989693;28;20101;-60
2022/12/04 06:31:08;;;;;;;42.35;25.35;;;179.50;2252.80;;;;;;4989544;28;20058;-60
2022/12/04 06:33:35;;;;;;;42.97;24.65;;;179.40;2252.80;;;;;;4989787;28;20113;-60
2022/12/04 06:36:06;;;;;;;43.65;30.88;;;179.50;2252.80;;;;;;4985234;28;20035;-59
2022/12/04 06:38:33;;;;;;;54.90;38.70;;;179.60;2252.80;;;;;;4970041;28;20038;-60
2022/12/04 06:41:02;;;;;;;59.00;37.45;;;179.70;2252.80;;;;;;4977685;28;20030;-58
2022/12/04 06:43:27;;;;;;;57.58;39.60;;;179.70;2252.80;;;;;;4984586;28;20037;-60
2022/12/04 06:46:01;;;;;;;62.58;39.50;;;179.80;2252.80;;;;;;4989630;28;20023;-60
2022/12/04 06:48:28;;;;;;;63.47;38.30;;;179.80;2252.80;;;;;;4989249;28;20061;-58
2022/12/04 06:51:01;;;;;;;79.30;51.05;;;179.80;2252.80;;;;;;4989602;28;20045;-57
2022/12/04 06:53:29;;;;;;;;;;;179.90;2252.80;;;;;;4993316;28;20473;-60
2022/12/04 06:55:59;;;;;;;92.63;64.72;;;180.10;2252.80;;;;;;4992999;28;19988;-58
2022/12/04 06:58:26;;;;;;;105.65;75.78;;;204.80;2252.80;;;;;;4992975;28;20037;-58
2022/12/04 07:00:52;;;;;;;91.70;71.03;;;205.00;2252.80;;;;;;4993347;28;20025;-59
2022/12/04 07:03:18;;;;;;;44.05;30.95;;;205.10;2252.80;;;;;;4993335;28;20031;-60
2022/12/04 07:05:44;;;;;;;76.85;55.03;;;205.40;2252.80;;;;;;4993151;28;20030;-59
2022/12/04 07:08:10;;;;;;;68.13;50.38;;;205.40;2252.80;;;;;;4993302;28;20041;-59
2022/12/04 07:10:37;;;;;;;57.03;36.30;;;205.50;2252.80;;;;;;4992782;28;20026;-59
2022/12/04 07:13:03;;;;;;;46.17;32.90;;;205.50;2252.80;;;;;;4993085;28;20066;-57
2022/12/04 07:15:29;;;;;;;97.43;70.28;;;205.50;2252.80;;;;;;4992986;28;20109;-58
2022/12/04 07:17:55;;;;;;;90.78;60.88;;;205.50;2252.80;;;;;;4992867;28;20437;-59
2022/12/04 07:20:21;;;;;;;66.38;47.78;;;205.50;2252.80;;;;;;4993036;28;20033;-60
2022/12/04 07:22:46;;;;;;;68.88;45.20;;;205.40;2252.80;;;;;;4992216;28;20073;-60
2022/12/04 07:25:12;;;;;;;66.13;44.33;;;205.50;2252.80;;;;;;4990887;28;20113;-58
2022/12/04 07:27:37;;;;;;;67.18;46.80;;;205.60;2252.80;;;;;;4975625;28;20049;-58
2022/12/04 07:30:04;;;;;;;80.18;54.03;;;205.60;2252.80;;;;;;4973137;28;20042;-58
2022/12/04 07:32:30;;;;;;;88.80;61.70;;;205.70;2252.80;;;;;;4973381;28;20027;-60
2022/12/04 07:34:56;;;;;;;108.07;68.65;;;230.40;2252.80;;;;;;4973090;28;20084;-60
2022/12/04 07:37:21;;;;;;;95.72;60.03;;;230.40;2252.80;;;;;;4973111;28;20042;-58
2022/12/04 07:39:50;;;;;;;94.90;65.72;;;230.50;2252.80;;;;;;4981777;28;20489;-59
2022/12/04 07:42:16;;;;;;;89.97;64.50;;;230.40;2252.80;;;;;;4954314;29;20105;-60
2022/12/04 07:44:42;;;;;;;93.75;66.95;;;230.40;2252.80;;;;;;4954634;29;20426;-58
2022/12/04 07:47:07;;;;;;;92.20;66.57;;;230.50;2252.80;;;;;;4979957;28;20057;-60
2022/12/04 07:49:33;;;;;;;85.57;57.55;;;230.70;2252.80;;;;;;4980510;28;20030;-59
2022/12/04 07:51:59;;;;;;;90.32;66.80;;;230.80;2252.80;;;;;;4992748;28;20033;-58
2022/12/04 07:54:25;;;;;;;85.50;59.10;;;230.90;2252.80;;;;;;4993112;28;20358;-58
2022/12/04 07:56:50;;;;;;;60.55;43.35;;;230.80;2252.80;;;;;;4993103;28;20047;-59
2022/12/04 07:59:16;;;;;;;66.57;49.70;;;230.60;2252.80;;;;;;4992852;28;20026;-60
2022/12/04 08:01:42;;;;;;;78.32;54.42;;;230.70;2252.80;;;;;;4991671;28;20065;-59
2022/12/04 08:04:10;;;;;;;87.43;66.03;;;230.70;2252.80;;;;;;4984679;28;20034;-59
2022/12/04 08:06:36;;;;;;;96.82;71.20;;;230.80;2252.80;;;;;;4992088;28;20122;-59
2022/12/04 08:09:03;;;;;;;104.72;83.25;;;231.00;2252.80;;;;;;4993073;28;20045;-57
2022/12/04 08:11:29;;;;;;;116.57;81.28;;;230.90;2252.80;;;;;;4991475;28;20485;-59
2022/12/04 08:14:00;;;;;;;109.05;85.85;;;231.10;2252.80;;;;;;4975163;28;20054;-60
2022/12/04 08:16:27;;;;;;;108.05;77.00;;;231.10;2252.80;;;;;;4974652;28;20022;-59
2022/12/04 08:18:54;;;;;;;91.72;61.95;;;231.10;2252.80;;;;;;4972693;28;20034;-58
2022/12/04 08:21:22;;;;;;;102.10;70.05;;;256.00;2252.80;;;;;;4973241;28;20109;-57
2022/12/04 08:23:52;;;;;;;125.25;84.45;;;256.10;2252.80;;;;;;4972849;28;20026;-58
2022/12/04 08:26:20;;;;;;;143.32;100.60;;;231.20;2252.80;;;;;;4973085;28;20236;-57
2022/12/04 08:28:46;;;;;;;141.80;101.78;;;231.20;2252.80;;;;;;4972968;28;20027;-57
2022/12/04 08:31:18;;;;;;;143.98;100.60;;;256.00;2252.80;;;;;;4974860;28;20023;-58
2022/12/04 08:33:45;;;;;;;132.95;92.65;;;256.10;2252.80;;;;;;4980538;28;20023;-58
2022/12/04 08:36:13;;;;;;;115.05;80.03;;;256.20;2252.80;;;;;;4981160;28;20026;-58
2022/12/04 08:38:38;;;;;;;92.13;62.92;;;256.20;2252.80;;;;;;4979488;28;20501;-57
2022/12/04 08:41:06;;;;;;;95.85;68.75;;;256.40;2252.80;;;;;;4972231;28;20060;-56
2022/12/04 08:43:32;;;;;;;101.15;73.95;;;256.80;2252.80;;;;;;4987120;28;20046;-58
2022/12/04 08:46:00;;;;;;;87.70;62.10;;;281.70;2278.40;;;;;;4988748;28;20077;-60
2022/12/04 08:48:26;;;;;;;129.63;92.60;;;281.80;2278.40;;;;;;4992129;28;20036;-58
2022/12/04 08:50:52;;;;;;;85.28;61.28;;;256.80;2252.80;;;;;;4992224;28;20026;-58
2022/12/04 08:53:18;;;;;;;98.22;63.03;;;256.90;2252.80;;;;;;4991854;28;20093;-59
2022/12/04 08:55:44;;;;;;;70.43;50.45;;;281.70;2278.40;;;;;;4991987;28;20096;-57
2022/12/04 08:58:10;;;;;;;90.50;64.60;;;281.90;2278.40;;;;;;4991781;28;20034;-58
2022/12/04 09:00:36;;;;;;;104.25;75.93;;;282.00;2278.40;;;;;;4991868;28;20022;-57
2022/12/04 09:03:01;;;;;;;86.63;61.42;;;281.70;2278.40;;;;;;4991870;28;20042;-58
2022/12/04 09:05:28;;;;;;;128.55;87.22;;;281.70;2278.40;;;;;;4991634;28;20061;-57
2022/12/04 09:07:54;;;;;;;115.07;78.32;;;281.90;2278.40;;;;;;4991886;28;20113;-59
2022/12/04 09:10:20;;;;;;;91.60;65.50;;;281.60;2278.40;;;;;;4988752;28;20067;-58
2022/12/04 09:12:46;;;;;;;84.57;61.97;;;256.80;2252.80;;;;;;4988226;28;20433;-58
2022/12/04 09:15:12;;;;;;;84.80;61.58;;;281.80;2278.40;;;;;;4971716;28;20496;-59
2022/12/04 09:17:37;;;;;;;88.47;62.70;;;282.10;2278.40;;;;;;4972153;28;20354;-58
2022/12/04 09:20:04;;;;;;;87.30;63.42;;;282.30;2278.40;;;;;;4972109;28;20027;-57
2022/12/04 09:22:30;;;;;;;51.53;36.33;;;282.40;2278.40;;;;;;4971910;28;20030;-60
2022/12/04 09:24:56;;;;;;;45.17;36.03;;;282.50;2278.40;;;;;;4971924;28;20085;-57
2022/12/04 09:27:22;;;;;;;59.00;42.13;;;282.30;2278.40;;;;;;4971952;28;20034;-57
2022/12/04 09:29:47;;;;;;;48.92;38.17;;;282.40;2278.40;;;;;;4972092;28;20029;-54
2022/12/04 09:32:13;;;;;;;51.10;40.10;;;282.50;2278.40;;;;;;4972206;28;20030;-54
2022/12/04 09:34:39;;;;;;;55.92;41.33;;;282.30;2278.40;;;;;;4972054;28;20033;-55
2022/12/04 09:37:04;;;;;;;55.70;42.05;;;282.30;2278.40;;;;;;4971762;28;20416;-56
2022/12/04 09:39:30;;;;;;;58.85;39.88;;;282.50;2278.40;;;;;;4972025;28;20043;-58
2022/12/04 09:42:16;;;;;;;52.85;37.97;;;282.40;2278.40;;;;;;4971828;28;20381;-57
2022/12/04 09:44:52;;;;;;;54.20;40.15;;;282.40;2278.40;;;;;;4971548;28;20066;-57
2022/12/04 09:47:20;;;;;;;54.35;40.53;;;282.40;2278.40;;;;;;4971720;28;20073;-57
2022/12/04 09:49:55;;;;;;;57.95;39.35;;;282.30;2278.40;;;;;;4971514;28;20030;-56
2022/12/04 09:52:36;;;;;;;51.08;36.63;;;282.30;2278.40;;;;;;4979673;28;20054;-56
2022/12/04 09:55:04;;;;;;;56.20;38.00;;;282.30;2278.40;;;;;;4991092;28;20034;-59
2022/12/04 09:57:41;;;;;;;65.03;44.63;;;282.10;2278.40;;;;;;4990778;28;20046;-57
2022/12/04 10:00:12;;;;;;;61.72;43.90;;;282.20;2278.40;;;;;;4990912;28;20105;-58
2022/12/04 10:02:41;;;;;;;119.85;84.00;;;282.10;2278.40;;;;;;4990990;28;20034;-57
2022/12/04 10:05:18;;;;;;;80.60;58.35;;;282.30;2278.40;;;;;;4990866;28;20034;-58
2022/12/04 10:08:05;;;;;;;138.93;89.22;;;282.50;2278.40;;;;;;4991138;28;20042;-56
2022/12/04 10:10:38;;;;;;;77.50;52.92;;;307.20;2304.00;;;;;;4990911;28;20059;-56
2022/12/04 10:13:31;;;;;;;44.97;34.78;;;282.50;2278.40;;;;;;4990971;28;20027;-59
2022/12/04 10:16:12;;;;;;;128.55;92.07;;;282.40;2278.40;;;;;;4989532;28;20385;-58
2022/12/04 10:19:02;;;;;;;227.95;156.02;;;307.30;2304.00;;;;;;4990912;28;20076;-56
2022/12/04 10:21:30;;;;;;;93.72;66.57;;;307.40;2304.00;;;;;;4989818;28;20516;-54
2022/12/04 10:24:27;;;;;;;90.60;60.58;;;307.40;2304.00;;;;;;4988556;28;20042;-57
2022/12/04 10:26:58;;;;;;;158.13;111.68;;;307.60;2304.00;;;;;;4990468;28;20022;-57
2022/12/04 10:29:32;;;;;;;104.30;77.53;;;307.30;2304.00;;;;;;4993318;28;20030;-58
2022/12/04 10:32:16;;;;;;;106.30;75.45;;;307.60;2304.00;;;;;;4993032;28;20023;-54
2022/12/04 10:34:43;;;;;;;122.45;81.68;;;307.70;2304.00;;;;;;4992644;28;20038;-55
2022/12/04 10:37:12;;;;;;;95.95;70.85;;;307.90;2304.00;;;;;;4992656;28;20053;-55
2022/12/04 10:40:06;;;;;;;65.93;48.53;;;307.60;2304.00;;;;;;4982997;28;20085;-56
2022/12/04 10:48:39;;;;;;;33.38;23.08;;;307.60;2304.00;;;;;;4978034;28;20034;-56
2022/12/04 10:51:09;;;;;;;;;;;307.50;2304.00;;;;;;4976012;28;20031;-59
2022/12/04 10:53:36;;;;;;;72.68;48.85;;;307.60;2304.00;;;;;;4973011;28;20253;-57
2022/12/04 10:56:14;;;;;;;45.53;33.17;;;307.50;2304.00;;;;;;4973191;28;20043;-54
2022/12/04 10:58:40;;;;;;;89.60;63.17;;;307.30;2304.00;;;;;;4973473;28;20069;-55
2022/12/04 11:01:14;;;;;;;117.18;100.25;;;307.30;2304.00;;;;;;4972818;28;20050;-57
2022/12/04 11:03:43;;;;;;;75.80;52.05;;;307.50;2304.00;;;;;;4979218;28;20093;-58
2022/12/04 11:06:10;;;;;;;73.40;51.92;;;307.50;2304.00;;;;;;4972669;28;20035;-59
2022/12/04 11:08:42;;;;;;;124.53;94.25;;;307.30;2304.00;;;;;;4972985;28;20038;-58
2022/12/04 11:11:11;;;;;;;44.50;34.07;;;307.30;2304.00;;;;;;4972785;28;20592;-57
2022/12/04 11:13:38;;;;;;;48.22;38.38;;;307.20;2304.00;;;;;;4972818;28;20273;-57
2022/12/04 11:16:05;;;;;;;64.40;54.28;;;307.30;2304.00;;;;;;4972422;28;20027;-58
2022/12/04 11:18:34;;;;;;;54.42;40.97;;;307.40;2304.00;;;;;;4975098;28;20082;-57
2022/12/04 11:21:04;;;;;;;74.95;58.03;;;307.50;2304.00;;;;;;4974472;28;20169;-57
2022/12/04 11:23:41;;;;;;;74.78;53.10;;;307.60;2304.00;;;;;;4974059;28;20038;-57
2022/12/04 11:26:08;;;;;;;107.68;66.63;;;307.80;2304.00;;;;;;4974118;28;20030;-58
2022/12/04 11:28:34;;;;;;;70.63;50.10;;;307.70;2304.00;;;;;;4974315;28;20139;-59
2022/12/04 11:31:02;;;;;;;69.88;49.80;;;307.70;2304.00;;;;;;4974354;28;20100;-57
2022/12/04 11:33:53;;;;;;;75.85;57.15;;;307.70;2304.00;;;;;;4973872;28;20374;-57
2022/12/04 11:36:26;;;;;;;66.00;49.35;;;307.70;2304.00;;;;;;4973952;28;20061;-57
2022/12/04 11:39:01;;;;;;;62.38;46.90;;;307.80;2304.00;;;;;;4973659;28;20065;-58
2022/12/04 11:41:29;;;;;;;56.55;42.40;;;307.70;2304.00;;;;;;4973982;28;20118;-59
2022/12/04 11:43:56;;;;;;;36.03;28.45;;;307.80;2304.00;;;;;;4973662;28;20075;-57
2022/12/04 11:46:24;;;;;;;31.02;24.92;;;307.80;2304.00;;;;;;4974057;28;20433;-59
2022/12/04 11:48:51;;;;;;;39.38;28.45;;;307.80;2304.00;;;;;;4974115;28;20102;-57
2022/12/04 11:51:35;;;;;;;28.52;21.60;;;307.80;2304.00;;;;;;4973852;28;20036;-57
2022/12/04 11:54:29;;;;;;;34.08;26.73;;;308.00;2304.00;;;;;;4973944;28;20031;-59
2022/12/04 11:57:18;;;;;;;45.60;31.45;;;308.10;2304.00;;;;;;4973535;28;20433;-59
2022/12/04 11:59:50;;;;;;;58.20;42.85;;;307.90;2304.00;;;;;;4971113;28;20038;-59
2022/12/04 12:02:28;;;;;;;51.28;39.33;;;308.00;2304.00;;;;;;4971773;28;20804;-58
2022/12/04 12:05:18;;;;;;;31.63;25.40;;;308.10;2304.00;;;;;;4971979;28;20046;-56
2022/12/04 12:07:47;;;;;;;45.42;33.42;;;308.10;2304.00;;;;;;4971979;28;20030;-58
2022/12/04 12:10:27;;;;;;;52.13;42.10;;;307.80;2304.00;;;;;;4971960;28;20035;-57
2022/12/04 12:13:32;;;;;;;59.30;42.13;;;307.90;2304.00;;;;;;4971367;28;20050;-58
2022/12/04 12:16:11;;;;;;;72.32;50.05;;;308.00;2304.00;;;;;;4971577;28;20034;-57
2022/12/04 12:18:48;;;;;;;109.35;69.80;;;307.80;2304.00;;;;;;4971464;28;20078;-60
2022/12/04 12:21:32;;;;;;;73.50;55.50;;;307.80;2304.00;;;;;;4971661;28;20488;-60
2022/12/04 12:24:16;;;;;;;;;;;307.80;2304.00;;;;;;4971637;28;20118;-58
2022/12/04 12:26:49;;;;;;;215.88;131.90;;;307.90;2304.00;;;;;;4971234;28;19921;-56
2022/12/04 12:29:32;;;;;;;82.78;58.30;;;307.90;2304.00;;;;;;4971552;28;20023;-60
2022/12/04 12:32:10;;;;;;;75.05;57.67;;;307.80;2304.00;;;;;;4971224;28;20400;-55